sensor_id;sensor_type;location;lat;lon;timestamp;P1;durP1;ratioP1;P2;durP2;ratioP2
69841;SDS011;57138;51.326;-0.068;2024-03-25T00:01:38;31.33;;;7.50;;
69841;SDS011;57138;51.326;-0.068;2024-03-25T00:04:04;18.55;;;5.93;;
69841;SDS011;57138;51.326;-0.068;2024-03-25T00:06:29;16.85;;;5.30;;
69841;SDS011;57138;51.326;-0.068;2024-03-25T00:08:58;19.15;;;5.78;;
69841;SDS011;57138;51.326;-0.068;2024-03-25T00:11:27;20.88;;;5.82;;
69841;SDS011;57138;51.326;-0.068;2024-03-25T00:13:52;20.17;;;6.65;;
69841;SDS011;57138;51.326;-0.068;2024-03-25T00:16:18;19.67;;;5.47;;
69841;SDS011;57138;51.326;-0.068;2024-03-25T00:18:43;21.75;;;6.57;;
69841;SDS011;57138;51.326;-0.068;2024-03-25T00:21:09;18.98;;;5.32;;
69841;SDS011;57138;51.326;-0.068;2024-03-25T00:23:34;14.07;;;5.20;;
69841;SDS011;57138;51.326;-0.068;2024-03-25T00:25:59;15.10;;;4.78;;
69841;SDS011;57138;51.326;-0.068;2024-03-25T00:28:25;13.90;;;4.30;;
69841;SDS011;57138;51.326;-0.068;2024-03-25T00:30:50;16.83;;;3.92;;
69841;SDS011;57138;51.326;-0.068;2024-03-25T00:33:15;18.40;;;3.90;;
69841;SDS011;57138;51.326;-0.068;2024-03-25T00:35:42;16.23;;;4.55;;
69841;SDS011;57138;51.326;-0.068;2024-03-25T00:38:08;12.25;;;3.63;;
69841;SDS011;57138;51.326;-0.068;2024-03-25T00:40:34;14.73;;;3.67;;
69841;SDS011;57138;51.326;-0.068;2024-03-25T00:42:59;17.83;;;5.00;;
69841;SDS011;57138;51.326;-0.068;2024-03-25T00:45:25;20.35;;;4.60;;
69841;SDS011;57138;51.326;-0.068;2024-03-25T00:47:55;12.57;;;4.57;;
69841;SDS011;57138;51.326;-0.068;2024-03-25T00:50:24;14.77;;;5.20;;
69841;SDS011;57138;51.326;-0.068;2024-03-25T00:52:50;14.82;;;4.07;;
69841;SDS011;57138;51.326;-0.068;2024-03-25T00:55:16;14.38;;;4.88;;
69841;SDS011;57138;51.326;-0.068;2024-03-25T00:57:41;12.32;;;4.05;;
69841;SDS011;57138;51.326;-0.068;2024-03-25T01:00:06;20.00;;;4.07;;
69841;SDS011;57138;51.326;-0.068;2024-03-25T01:02:32;13.43;;;4.55;;
69841;SDS011;57138;51.326;-0.068;2024-03-25T01:04:58;15.55;;;4.25;;
69841;SDS011;57138;51.326;-0.068;2024-03-25T01:07:24;15.57;;;4.53;;
69841;SDS011;57138;51.326;-0.068;2024-03-25T01:09:50;18.67;;;4.55;;
69841;SDS011;57138;51.326;-0.068;2024-03-25T01:12:16;17.05;;;4.82;;
69841;SDS011;57138;51.326;-0.068;2024-03-25T01:14:41;14.48;;;4.05;;
69841;SDS011;57138;51.326;-0.068;2024-03-25T01:17:06;16.90;;;4.15;;
69841;SDS011;57138;51.326;-0.068;2024-03-25T01:19:32;13.38;;;4.22;;
69841;SDS011;57138;51.326;-0.068;2024-03-25T01:21:57;21.52;;;4.15;;
69841;SDS011;57138;51.326;-0.068;2024-03-25T01:24:22;13.10;;;4.70;;
69841;SDS011;57138;51.326;-0.068;2024-03-25T01:26:48;16.95;;;4.40;;
69841;SDS011;57138;51.326;-0.068;2024-03-25T01:29:14;12.43;;;3.67;;
69841;SDS011;57138;51.326;-0.068;2024-03-25T01:31:39;18.95;;;5.88;;
69841;SDS011;57138;51.326;-0.068;2024-03-25T01:34:04;16.15;;;4.55;;
69841;SDS011;57138;51.326;-0.068;2024-03-25T01:36:30;15.32;;;4.68;;
69841;SDS011;57138;51.326;-0.068;2024-03-25T01:38:56;17.33;;;4.80;;
69841;SDS011;57138;51.326;-0.068;2024-03-25T01:41:22;13.35;;;3.55;;
69841;SDS011;57138;51.326;-0.068;2024-03-25T01:43:51;18.67;;;5.13;;
69841;SDS011;57138;51.326;-0.068;2024-03-25T01:46:17;14.27;;;3.97;;
69841;SDS011;57138;51.326;-0.068;2024-03-25T01:48:44;12.98;;;3.97;;
69841;SDS011;57138;51.326;-0.068;2024-03-25T01:51:10;13.43;;;4.15;;
69841;SDS011;57138;51.326;-0.068;2024-03-25T01:53:38;18.05;;;4.93;;
69841;SDS011;57138;51.326;-0.068;2024-03-25T01:56:04;17.40;;;4.75;;
69841;SDS011;57138;51.326;-0.068;2024-03-25T01:58:30;15.20;;;3.90;;
69841;SDS011;57138;51.326;-0.068;2024-03-25T02:00:56;17.13;;;3.85;;
69841;SDS011;57138;51.326;-0.068;2024-03-25T02:03:26;12.48;;;3.10;;
69841;SDS011;57138;51.326;-0.068;2024-03-25T02:05:53;13.88;;;4.68;;
69841;SDS011;57138;51.326;-0.068;2024-03-25T02:08:22;22.00;;;4.50;;
69841;SDS011;57138;51.326;-0.068;2024-03-25T02:10:47;17.73;;;4.63;;
69841;SDS011;57138;51.326;-0.068;2024-03-25T02:13:14;13.43;;;3.80;;
69841;SDS011;57138;51.326;-0.068;2024-03-25T02:15:40;13.73;;;4.68;;
69841;SDS011;57138;51.326;-0.068;2024-03-25T02:18:06;17.38;;;4.75;;
69841;SDS011;57138;51.326;-0.068;2024-03-25T02:20:31;19.52;;;4.32;;
69841;SDS011;57138;51.326;-0.068;2024-03-25T02:22:57;17.80;;;4.03;;
69841;SDS011;57138;51.326;-0.068;2024-03-25T02:25:23;15.27;;;3.80;;
69841;SDS011;57138;51.326;-0.068;2024-03-25T02:27:49;12.95;;;3.95;;
69841;SDS011;57138;51.326;-0.068;2024-03-25T02:30:14;19.70;;;4.45;;
69841;SDS011;57138;51.326;-0.068;2024-03-25T02:32:41;24.23;;;4.20;;
69841;SDS011;57138;51.326;-0.068;2024-03-25T02:35:13;25.85;;;5.25;;
69841;SDS011;57138;51.326;-0.068;2024-03-25T02:37:41;17.67;;;4.95;;
69841;SDS011;57138;51.326;-0.068;2024-03-25T02:40:08;19.90;;;3.97;;
69841;SDS011;57138;51.326;-0.068;2024-03-25T02:42:35;21.98;;;4.85;;
69841;SDS011;57138;51.326;-0.068;2024-03-25T02:45:01;16.85;;;4.13;;
69841;SDS011;57138;51.326;-0.068;2024-03-25T02:47:27;19.42;;;4.20;;
69841;SDS011;57138;51.326;-0.068;2024-03-25T02:49:53;19.38;;;4.32;;
69841;SDS011;57138;51.326;-0.068;2024-03-25T02:52:19;12.95;;;4.57;;
69841;SDS011;57138;51.326;-0.068;2024-03-25T02:54:45;12.07;;;3.80;;
69841;SDS011;57138;51.326;-0.068;2024-03-25T02:57:10;22.92;;;4.90;;
69841;SDS011;57138;51.326;-0.068;2024-03-25T02:59:36;14.55;;;4.03;;
69841;SDS011;57138;51.326;-0.068;2024-03-25T03:02:01;11.68;;;3.50;;
69841;SDS011;57138;51.326;-0.068;2024-03-25T03:04:27;13.65;;;3.55;;
69841;SDS011;57138;51.326;-0.068;2024-03-25T03:06:52;21.15;;;4.15;;
69841;SDS011;57138;51.326;-0.068;2024-03-25T03:09:18;14.93;;;3.50;;
69841;SDS011;57138;51.326;-0.068;2024-03-25T03:11:43;19.58;;;5.07;;
69841;SDS011;57138;51.326;-0.068;2024-03-25T03:14:08;17.45;;;4.65;;
69841;SDS011;57138;51.326;-0.068;2024-03-25T03:16:34;14.70;;;3.65;;
69841;SDS011;57138;51.326;-0.068;2024-03-25T03:19:00;14.70;;;3.97;;
69841;SDS011;57138;51.326;-0.068;2024-03-25T03:21:26;16.60;;;4.95;;
69841;SDS011;57138;51.326;-0.068;2024-03-25T03:23:51;18.15;;;4.32;;
69841;SDS011;57138;51.326;-0.068;2024-03-25T03:26:16;20.20;;;3.63;;
69841;SDS011;57138;51.326;-0.068;2024-03-25T03:28:42;18.63;;;4.35;;
69841;SDS011;57138;51.326;-0.068;2024-03-25T03:31:07;15.07;;;4.30;;
69841;SDS011;57138;51.326;-0.068;2024-03-25T03:33:33;16.73;;;4.93;;
69841;SDS011;57138;51.326;-0.068;2024-03-25T03:35:58;17.42;;;5.25;;
69841;SDS011;57138;51.326;-0.068;2024-03-25T03:38:23;15.60;;;4.25;;
69841;SDS011;57138;51.326;-0.068;2024-03-25T03:40:55;16.75;;;4.85;;
69841;SDS011;57138;51.326;-0.068;2024-03-25T03:43:24;24.10;;;4.77;;
69841;SDS011;57138;51.326;-0.068;2024-03-25T03:45:49;21.70;;;4.43;;
69841;SDS011;57138;51.326;-0.068;2024-03-25T03:48:15;28.30;;;6.45;;
69841;SDS011;57138;51.326;-0.068;2024-03-25T03:50:41;21.23;;;6.35;;
69841;SDS011;57138;51.326;-0.068;2024-03-25T03:53:09;17.80;;;4.95;;
69841;SDS011;57138;51.326;-0.068;2024-03-25T03:55:38;25.60;;;5.90;;
69841;SDS011;57138;51.326;-0.068;2024-03-25T03:58:04;23.17;;;5.30;;
69841;SDS011;57138;51.326;-0.068;2024-03-25T04:00:32;24.70;;;5.20;;
69841;SDS011;57138;51.326;-0.068;2024-03-25T04:02:59;21.40;;;4.95;;
69841;SDS011;57138;51.326;-0.068;2024-03-25T04:05:27;19.63;;;5.95;;
69841;SDS011;57138;51.326;-0.068;2024-03-25T04:07:53;24.50;;;4.90;;
69841;SDS011;57138;51.326;-0.068;2024-03-25T04:10:19;25.52;;;6.53;;
69841;SDS011;57138;51.326;-0.068;2024-03-25T04:12:44;20.05;;;5.22;;
69841;SDS011;57138;51.326;-0.068;2024-03-25T04:15:09;20.50;;;6.25;;
69841;SDS011;57138;51.326;-0.068;2024-03-25T04:17:42;22.00;;;5.88;;
69841;SDS011;57138;51.326;-0.068;2024-03-25T04:20:11;25.08;;;6.22;;
69841;SDS011;57138;51.326;-0.068;2024-03-25T04:22:40;20.98;;;5.00;;
69841;SDS011;57138;51.326;-0.068;2024-03-25T04:25:09;20.15;;;5.22;;
69841;SDS011;57138;51.326;-0.068;2024-03-25T04:27:39;24.63;;;6.00;;
69841;SDS011;57138;51.326;-0.068;2024-03-25T04:30:08;23.90;;;5.88;;
69841;SDS011;57138;51.326;-0.068;2024-03-25T04:32:35;22.38;;;5.88;;
69841;SDS011;57138;51.326;-0.068;2024-03-25T04:35:01;20.52;;;6.32;;
69841;SDS011;57138;51.326;-0.068;2024-03-25T04:37:27;32.58;;;6.88;;
69841;SDS011;57138;51.326;-0.068;2024-03-25T04:39:53;23.90;;;7.25;;
69841;SDS011;57138;51.326;-0.068;2024-03-25T04:42:19;24.20;;;6.80;;
69841;SDS011;57138;51.326;-0.068;2024-03-25T04:44:44;29.30;;;7.47;;
69841;SDS011;57138;51.326;-0.068;2024-03-25T04:47:10;25.38;;;7.20;;
69841;SDS011;57138;51.326;-0.068;2024-03-25T04:49:35;18.95;;;4.82;;
69841;SDS011;57138;51.326;-0.068;2024-03-25T04:52:00;24.85;;;5.85;;
69841;SDS011;57138;51.326;-0.068;2024-03-25T04:54:28;24.48;;;5.68;;
69841;SDS011;57138;51.326;-0.068;2024-03-25T04:56:53;29.38;;;6.00;;
69841;SDS011;57138;51.326;-0.068;2024-03-25T04:59:19;21.85;;;6.13;;
69841;SDS011;57138;51.326;-0.068;2024-03-25T05:01:44;21.02;;;6.03;;
69841;SDS011;57138;51.326;-0.068;2024-03-25T05:04:10;24.00;;;6.18;;
69841;SDS011;57138;51.326;-0.068;2024-03-25T05:06:35;31.45;;;8.63;;
69841;SDS011;57138;51.326;-0.068;2024-03-25T05:09:01;34.20;;;7.15;;
69841;SDS011;57138;51.326;-0.068;2024-03-25T05:11:26;32.72;;;5.43;;
69841;SDS011;57138;51.326;-0.068;2024-03-25T05:13:52;25.75;;;6.57;;
69841;SDS011;57138;51.326;-0.068;2024-03-25T05:16:17;20.85;;;6.30;;
69841;SDS011;57138;51.326;-0.068;2024-03-25T05:18:42;21.23;;;5.68;;
69841;SDS011;57138;51.326;-0.068;2024-03-25T05:21:08;27.55;;;6.75;;
69841;SDS011;57138;51.326;-0.068;2024-03-25T05:23:33;26.33;;;8.02;;
69841;SDS011;57138;51.326;-0.068;2024-03-25T05:25:59;27.48;;;8.02;;
69841;SDS011;57138;51.326;-0.068;2024-03-25T05:28:24;38.65;;;5.78;;
69841;SDS011;57138;51.326;-0.068;2024-03-25T05:30:50;21.15;;;6.25;;
69841;SDS011;57138;51.326;-0.068;2024-03-25T05:33:15;26.05;;;5.60;;
69841;SDS011;57138;51.326;-0.068;2024-03-25T05:35:41;40.38;;;6.72;;
69841;SDS011;57138;51.326;-0.068;2024-03-25T05:38:06;24.58;;;5.72;;
69841;SDS011;57138;51.326;-0.068;2024-03-25T05:40:32;23.95;;;5.88;;
69841;SDS011;57138;51.326;-0.068;2024-03-25T05:42:58;20.80;;;5.40;;
69841;SDS011;57138;51.326;-0.068;2024-03-25T05:45:23;27.17;;;6.38;;
69841;SDS011;57138;51.326;-0.068;2024-03-25T05:47:50;27.50;;;5.53;;
69841;SDS011;57138;51.326;-0.068;2024-03-25T05:50:16;24.55;;;7.45;;
69841;SDS011;57138;51.326;-0.068;2024-03-25T05:52:41;25.02;;;5.32;;
69841;SDS011;57138;51.326;-0.068;2024-03-25T05:55:07;33.38;;;7.15;;
69841;SDS011;57138;51.326;-0.068;2024-03-25T05:57:34;19.92;;;5.43;;
69841;SDS011;57138;51.326;-0.068;2024-03-25T06:00:00;21.90;;;4.65;;
69841;SDS011;57138;51.326;-0.068;2024-03-25T06:02:26;26.17;;;6.43;;
69841;SDS011;57138;51.326;-0.068;2024-03-25T06:04:51;19.02;;;4.40;;
69841;SDS011;57138;51.326;-0.068;2024-03-25T06:07:16;28.23;;;6.20;;
69841;SDS011;57138;51.326;-0.068;2024-03-25T06:09:42;28.45;;;6.25;;
69841;SDS011;57138;51.326;-0.068;2024-03-25T06:12:07;28.15;;;5.95;;
69841;SDS011;57138;51.326;-0.068;2024-03-25T06:14:33;35.83;;;5.65;;
69841;SDS011;57138;51.326;-0.068;2024-03-25T06:16:59;28.17;;;6.65;;
69841;SDS011;57138;51.326;-0.068;2024-03-25T06:19:24;23.67;;;6.03;;
69841;SDS011;57138;51.326;-0.068;2024-03-25T06:21:49;21.48;;;4.63;;
69841;SDS011;57138;51.326;-0.068;2024-03-25T06:24:15;28.05;;;5.22;;
69841;SDS011;57138;51.326;-0.068;2024-03-25T06:26:40;32.30;;;5.68;;
69841;SDS011;57138;51.326;-0.068;2024-03-25T06:29:06;34.22;;;7.10;;
69841;SDS011;57138;51.326;-0.068;2024-03-25T06:31:31;33.90;;;5.68;;
69841;SDS011;57138;51.326;-0.068;2024-03-25T06:34:15;27.88;;;6.55;;
69841;SDS011;57138;51.326;-0.068;2024-03-25T06:36:43;24.67;;;6.20;;
69841;SDS011;57138;51.326;-0.068;2024-03-25T06:39:10;29.35;;;6.40;;
69841;SDS011;57138;51.326;-0.068;2024-03-25T06:41:35;26.83;;;6.68;;
69841;SDS011;57138;51.326;-0.068;2024-03-25T06:44:01;23.17;;;6.32;;
69841;SDS011;57138;51.326;-0.068;2024-03-25T06:46:26;22.95;;;6.25;;
69841;SDS011;57138;51.326;-0.068;2024-03-25T06:48:52;19.05;;;5.70;;
69841;SDS011;57138;51.326;-0.068;2024-03-25T06:51:17;18.50;;;5.93;;
69841;SDS011;57138;51.326;-0.068;2024-03-25T06:53:43;25.20;;;4.45;;
69841;SDS011;57138;51.326;-0.068;2024-03-25T06:56:08;29.60;;;5.53;;
69841;SDS011;57138;51.326;-0.068;2024-03-25T06:58:34;19.67;;;5.30;;
69841;SDS011;57138;51.326;-0.068;2024-03-25T07:01:06;23.45;;;4.95;;
69841;SDS011;57138;51.326;-0.068;2024-03-25T07:03:33;37.97;;;6.03;;
69841;SDS011;57138;51.326;-0.068;2024-03-25T07:05:59;24.13;;;4.30;;
69841;SDS011;57138;51.326;-0.068;2024-03-25T07:08:25;21.88;;;4.88;;
69841;SDS011;57138;51.326;-0.068;2024-03-25T07:10:55;26.77;;;4.25;;
69841;SDS011;57138;51.326;-0.068;2024-03-25T07:13:21;29.63;;;6.65;;
69841;SDS011;57138;51.326;-0.068;2024-03-25T07:15:47;21.95;;;5.07;;
69841;SDS011;57138;51.326;-0.068;2024-03-25T07:18:12;22.33;;;4.57;;
69841;SDS011;57138;51.326;-0.068;2024-03-25T07:20:41;19.38;;;4.20;;
69841;SDS011;57138;51.326;-0.068;2024-03-25T07:23:07;23.55;;;4.60;;
69841;SDS011;57138;51.326;-0.068;2024-03-25T07:25:33;21.50;;;4.03;;
69841;SDS011;57138;51.326;-0.068;2024-03-25T07:27:58;28.25;;;5.63;;
69841;SDS011;57138;51.326;-0.068;2024-03-25T07:30:24;25.35;;;4.65;;
69841;SDS011;57138;51.326;-0.068;2024-03-25T07:32:56;15.20;;;4.18;;
69841;SDS011;57138;51.326;-0.068;2024-03-25T07:35:23;21.40;;;5.63;;
69841;SDS011;57138;51.326;-0.068;2024-03-25T07:37:48;18.30;;;3.53;;
69841;SDS011;57138;51.326;-0.068;2024-03-25T07:40:20;18.63;;;4.55;;
69841;SDS011;57138;51.326;-0.068;2024-03-25T07:42:47;15.75;;;4.22;;
69841;SDS011;57138;51.326;-0.068;2024-03-25T07:45:14;19.05;;;5.15;;
69841;SDS011;57138;51.326;-0.068;2024-03-25T07:47:39;16.27;;;4.93;;
69841;SDS011;57138;51.326;-0.068;2024-03-25T07:50:05;17.10;;;5.43;;
69841;SDS011;57138;51.326;-0.068;2024-03-25T07:52:31;17.23;;;4.45;;
69841;SDS011;57138;51.326;-0.068;2024-03-25T07:54:56;21.83;;;4.82;;
69841;SDS011;57138;51.326;-0.068;2024-03-25T07:57:22;26.30;;;4.28;;
69841;SDS011;57138;51.326;-0.068;2024-03-25T07:59:48;28.77;;;4.55;;
69841;SDS011;57138;51.326;-0.068;2024-03-25T08:02:14;21.38;;;3.70;;
69841;SDS011;57138;51.326;-0.068;2024-03-25T08:04:40;20.58;;;3.35;;
69841;SDS011;57138;51.326;-0.068;2024-03-25T08:07:05;16.98;;;3.38;;
69841;SDS011;57138;51.326;-0.068;2024-03-25T08:09:31;20.38;;;4.45;;
69841;SDS011;57138;51.326;-0.068;2024-03-25T08:11:56;13.02;;;3.83;;
69841;SDS011;57138;51.326;-0.068;2024-03-25T08:14:22;24.75;;;4.57;;
69841;SDS011;57138;51.326;-0.068;2024-03-25T08:16:48;21.30;;;5.05;;
69841;SDS011;57138;51.326;-0.068;2024-03-25T08:19:13;25.13;;;4.00;;
69841;SDS011;57138;51.326;-0.068;2024-03-25T08:21:39;20.80;;;3.80;;
69841;SDS011;57138;51.326;-0.068;2024-03-25T08:24:05;15.85;;;3.38;;
69841;SDS011;57138;51.326;-0.068;2024-03-25T08:26:31;16.15;;;3.15;;
69841;SDS011;57138;51.326;-0.068;2024-03-25T08:28:56;14.38;;;3.03;;
69841;SDS011;57138;51.326;-0.068;2024-03-25T08:31:22;20.92;;;3.20;;
69841;SDS011;57138;51.326;-0.068;2024-03-25T08:33:47;15.38;;;2.40;;
69841;SDS011;57138;51.326;-0.068;2024-03-25T08:36:14;10.82;;;2.38;;
69841;SDS011;57138;51.326;-0.068;2024-03-25T08:38:39;16.17;;;2.45;;
69841;SDS011;57138;51.326;-0.068;2024-03-25T08:41:05;17.58;;;2.90;;
69841;SDS011;57138;51.326;-0.068;2024-03-25T08:43:30;23.40;;;3.38;;
69841;SDS011;57138;51.326;-0.068;2024-03-25T08:45:56;24.05;;;3.05;;
69841;SDS011;57138;51.326;-0.068;2024-03-25T08:48:22;17.77;;;2.65;;
69841;SDS011;57138;51.326;-0.068;2024-03-25T08:50:50;14.30;;;3.63;;
69841;SDS011;57138;51.326;-0.068;2024-03-25T08:53:15;16.50;;;3.78;;
69841;SDS011;57138;51.326;-0.068;2024-03-25T08:55:47;11.73;;;2.45;;
69841;SDS011;57138;51.326;-0.068;2024-03-25T08:58:14;16.00;;;2.30;;
69841;SDS011;57138;51.326;-0.068;2024-03-25T09:00:40;10.13;;;2.60;;
69841;SDS011;57138;51.326;-0.068;2024-03-25T09:03:05;18.25;;;3.22;;
69841;SDS011;57138;51.326;-0.068;2024-03-25T09:05:30;23.23;;;3.85;;
69841;SDS011;57138;51.326;-0.068;2024-03-25T09:07:56;12.23;;;3.17;;
69841;SDS011;57138;51.326;-0.068;2024-03-25T09:10:23;15.52;;;2.13;;
69841;SDS011;57138;51.326;-0.068;2024-03-25T09:13:07;10.15;;;2.22;;
69841;SDS011;57138;51.326;-0.068;2024-03-25T09:15:33;19.58;;;3.58;;
69841;SDS011;57138;51.326;-0.068;2024-03-25T09:17:59;15.52;;;2.80;;
69841;SDS011;57138;51.326;-0.068;2024-03-25T09:20:25;18.15;;;2.90;;
69841;SDS011;57138;51.326;-0.068;2024-03-25T09:22:51;11.88;;;3.00;;
69841;SDS011;57138;51.326;-0.068;2024-03-25T09:25:17;16.45;;;3.67;;
69841;SDS011;57138;51.326;-0.068;2024-03-25T09:27:46;13.35;;;2.55;;
69841;SDS011;57138;51.326;-0.068;2024-03-25T09:30:13;13.63;;;2.83;;
69841;SDS011;57138;51.326;-0.068;2024-03-25T09:32:39;16.38;;;3.88;;
69841;SDS011;57138;51.326;-0.068;2024-03-25T09:35:06;15.70;;;2.72;;
69841;SDS011;57138;51.326;-0.068;2024-03-25T09:37:31;9.65;;;2.78;;
69841;SDS011;57138;51.326;-0.068;2024-03-25T09:39:57;13.23;;;2.55;;
69841;SDS011;57138;51.326;-0.068;2024-03-25T09:42:27;9.95;;;2.42;;
69841;SDS011;57138;51.326;-0.068;2024-03-25T09:44:58;14.65;;;2.92;;
69841;SDS011;57138;51.326;-0.068;2024-03-25T09:47:25;16.92;;;2.65;;
69841;SDS011;57138;51.326;-0.068;2024-03-25T09:49:51;10.98;;;2.50;;
69841;SDS011;57138;51.326;-0.068;2024-03-25T09:52:19;9.88;;;2.33;;
69841;SDS011;57138;51.326;-0.068;2024-03-25T09:54:45;13.02;;;3.05;;
69841;SDS011;57138;51.326;-0.068;2024-03-25T09:57:11;18.30;;;4.05;;
69841;SDS011;57138;51.326;-0.068;2024-03-25T09:59:37;10.75;;;2.47;;
69841;SDS011;57138;51.326;-0.068;2024-03-25T10:02:02;8.60;;;2.33;;
69841;SDS011;57138;51.326;-0.068;2024-03-25T10:04:29;13.02;;;2.25;;
69841;SDS011;57138;51.326;-0.068;2024-03-25T10:06:54;15.23;;;2.70;;
69841;SDS011;57138;51.326;-0.068;2024-03-25T10:09:20;12.68;;;2.83;;
69841;SDS011;57138;51.326;-0.068;2024-03-25T10:11:47;10.98;;;2.50;;
69841;SDS011;57138;51.326;-0.068;2024-03-25T10:14:17;14.50;;;3.08;;
69841;SDS011;57138;51.326;-0.068;2024-03-25T10:16:48;12.50;;;3.50;;
69841;SDS011;57138;51.326;-0.068;2024-03-25T10:19:14;12.07;;;3.10;;
69841;SDS011;57138;51.326;-0.068;2024-03-25T10:21:39;10.55;;;2.10;;
69841;SDS011;57138;51.326;-0.068;2024-03-25T10:24:05;15.02;;;3.15;;
69841;SDS011;57138;51.326;-0.068;2024-03-25T10:26:31;16.77;;;3.88;;
69841;SDS011;57138;51.326;-0.068;2024-03-25T10:29:01;17.52;;;6.40;;
69841;SDS011;57138;51.326;-0.068;2024-03-25T10:31:29;17.08;;;3.80;;
69841;SDS011;57138;51.326;-0.068;2024-03-25T10:33:55;16.60;;;3.30;;
69841;SDS011;57138;51.326;-0.068;2024-03-25T10:36:21;19.70;;;3.90;;
69841;SDS011;57138;51.326;-0.068;2024-03-25T10:38:49;10.38;;;3.55;;
69841;SDS011;57138;51.326;-0.068;2024-03-25T10:41:22;18.27;;;4.07;;
69841;SDS011;57138;51.326;-0.068;2024-03-25T10:43:50;11.63;;;3.08;;
69841;SDS011;57138;51.326;-0.068;2024-03-25T10:46:19;12.80;;;3.50;;
69841;SDS011;57138;51.326;-0.068;2024-03-25T10:48:52;14.48;;;3.38;;
69841;SDS011;57138;51.326;-0.068;2024-03-25T10:51:21;13.60;;;3.30;;
69841;SDS011;57138;51.326;-0.068;2024-03-25T10:53:51;15.32;;;3.70;;
69841;SDS011;57138;51.326;-0.068;2024-03-25T10:56:21;17.27;;;3.45;;
69841;SDS011;57138;51.326;-0.068;2024-03-25T10:58:48;15.02;;;2.95;;
69841;SDS011;57138;51.326;-0.068;2024-03-25T11:01:14;12.85;;;3.50;;
69841;SDS011;57138;51.326;-0.068;2024-03-25T11:03:41;13.27;;;3.05;;
69841;SDS011;57138;51.326;-0.068;2024-03-25T11:06:07;14.23;;;2.60;;
69841;SDS011;57138;51.326;-0.068;2024-03-25T11:08:33;18.17;;;3.72;;
69841;SDS011;57138;51.326;-0.068;2024-03-25T11:10:59;19.80;;;3.03;;
69841;SDS011;57138;51.326;-0.068;2024-03-25T11:13:26;19.50;;;4.38;;
69841;SDS011;57138;51.326;-0.068;2024-03-25T11:15:52;17.05;;;2.38;;
69841;SDS011;57138;51.326;-0.068;2024-03-25T11:18:18;9.93;;;2.78;;
69841;SDS011;57138;51.326;-0.068;2024-03-25T11:23:51;11.13;;;2.50;;
69841;SDS011;57138;51.326;-0.068;2024-03-25T11:26:19;13.48;;;2.10;;
69841;SDS011;57138;51.326;-0.068;2024-03-25T11:28:47;16.27;;;3.03;;
69841;SDS011;57138;51.326;-0.068;2024-03-25T11:31:13;15.40;;;3.00;;
69841;SDS011;57138;51.326;-0.068;2024-03-25T11:33:38;13.88;;;2.17;;
69841;SDS011;57138;51.326;-0.068;2024-03-25T11:36:05;12.90;;;2.58;;
69841;SDS011;57138;51.326;-0.068;2024-03-25T11:38:31;15.10;;;2.75;;
69841;SDS011;57138;51.326;-0.068;2024-03-25T11:40:56;9.85;;;3.17;;
69841;SDS011;57138;51.326;-0.068;2024-03-25T11:43:22;14.02;;;3.63;;
69841;SDS011;57138;51.326;-0.068;2024-03-25T11:45:49;11.90;;;3.40;;
69841;SDS011;57138;51.326;-0.068;2024-03-25T11:48:18;15.93;;;4.63;;
69841;SDS011;57138;51.326;-0.068;2024-03-25T11:50:45;20.20;;;3.83;;
69841;SDS011;57138;51.326;-0.068;2024-03-25T11:53:12;14.82;;;5.13;;
69841;SDS011;57138;51.326;-0.068;2024-03-25T11:55:38;13.32;;;2.80;;
69841;SDS011;57138;51.326;-0.068;2024-03-25T11:58:05;9.77;;;2.97;;
69841;SDS011;57138;51.326;-0.068;2024-03-25T12:00:30;11.10;;;3.92;;
69841;SDS011;57138;51.326;-0.068;2024-03-25T12:02:56;12.77;;;3.63;;
69841;SDS011;57138;51.326;-0.068;2024-03-25T12:05:21;11.60;;;3.08;;
69841;SDS011;57138;51.326;-0.068;2024-03-25T12:07:47;14.15;;;2.58;;
69841;SDS011;57138;51.326;-0.068;2024-03-25T12:10:15;14.43;;;2.88;;
69841;SDS011;57138;51.326;-0.068;2024-03-25T12:12:58;13.52;;;2.80;;
69841;SDS011;57138;51.326;-0.068;2024-03-25T12:15:24;12.82;;;3.25;;
69841;SDS011;57138;51.326;-0.068;2024-03-25T12:17:49;12.77;;;2.55;;
69841;SDS011;57138;51.326;-0.068;2024-03-25T12:20:16;17.67;;;2.75;;
69841;SDS011;57138;51.326;-0.068;2024-03-25T12:22:42;8.38;;;2.38;;
69841;SDS011;57138;51.326;-0.068;2024-03-25T12:25:08;15.32;;;2.70;;
69841;SDS011;57138;51.326;-0.068;2024-03-25T12:27:35;20.73;;;4.57;;
69841;SDS011;57138;51.326;-0.068;2024-03-25T12:30:07;13.95;;;3.97;;
69841;SDS011;57138;51.326;-0.068;2024-03-25T12:35:06;10.32;;;2.95;;
69841;SDS011;57138;51.326;-0.068;2024-03-25T12:37:33;13.48;;;2.15;;
69841;SDS011;57138;51.326;-0.068;2024-03-25T12:39:58;14.68;;;2.80;;
69841;SDS011;57138;51.326;-0.068;2024-03-25T12:42:24;18.33;;;3.10;;
69841;SDS011;57138;51.326;-0.068;2024-03-25T12:44:53;15.73;;;3.33;;
69841;SDS011;57138;51.326;-0.068;2024-03-25T12:47:19;9.70;;;2.42;;
69841;SDS011;57138;51.326;-0.068;2024-03-25T12:49:45;10.52;;;2.33;;
69841;SDS011;57138;51.326;-0.068;2024-03-25T12:52:11;19.85;;;2.60;;
69841;SDS011;57138;51.326;-0.068;2024-03-25T12:54:36;16.25;;;2.45;;
69841;SDS011;57138;51.326;-0.068;2024-03-25T12:57:02;9.95;;;2.67;;
69841;SDS011;57138;51.326;-0.068;2024-03-25T12:59:28;13.52;;;2.00;;
69841;SDS011;57138;51.326;-0.068;2024-03-25T13:01:53;11.02;;;2.60;;
69841;SDS011;57138;51.326;-0.068;2024-03-25T13:04:19;14.38;;;2.53;;
69841;SDS011;57138;51.326;-0.068;2024-03-25T13:06:44;9.93;;;2.58;;
69841;SDS011;57138;51.326;-0.068;2024-03-25T13:09:10;11.93;;;2.65;;
69841;SDS011;57138;51.326;-0.068;2024-03-25T13:11:37;15.13;;;2.38;;
69841;SDS011;57138;51.326;-0.068;2024-03-25T13:14:03;11.68;;;2.70;;
69841;SDS011;57138;51.326;-0.068;2024-03-25T13:16:31;12.93;;;2.13;;
69841;SDS011;57138;51.326;-0.068;2024-03-25T13:18:57;16.40;;;2.90;;
69841;SDS011;57138;51.326;-0.068;2024-03-25T13:21:22;7.80;;;1.80;;
69841;SDS011;57138;51.326;-0.068;2024-03-25T13:23:50;13.68;;;2.85;;
69841;SDS011;57138;51.326;-0.068;2024-03-25T13:26:16;9.80;;;2.58;;
69841;SDS011;57138;51.326;-0.068;2024-03-25T13:28:41;13.90;;;2.75;;
69841;SDS011;57138;51.326;-0.068;2024-03-25T13:31:07;12.68;;;2.30;;
69841;SDS011;57138;51.326;-0.068;2024-03-25T13:33:32;12.18;;;2.53;;
69841;SDS011;57138;51.326;-0.068;2024-03-25T13:35:57;11.77;;;2.42;;
69841;SDS011;57138;51.326;-0.068;2024-03-25T13:38:23;12.38;;;2.20;;
69841;SDS011;57138;51.326;-0.068;2024-03-25T13:40:48;9.00;;;1.67;;
69841;SDS011;57138;51.326;-0.068;2024-03-25T13:43:14;14.30;;;2.03;;
69841;SDS011;57138;51.326;-0.068;2024-03-25T13:45:45;7.03;;;1.80;;
69841;SDS011;57138;51.326;-0.068;2024-03-25T13:48:14;13.85;;;3.65;;
69841;SDS011;57138;51.326;-0.068;2024-03-25T13:50:41;12.70;;;3.33;;
69841;SDS011;57138;51.326;-0.068;2024-03-25T13:53:07;12.73;;;2.58;;
69841;SDS011;57138;51.326;-0.068;2024-03-25T13:55:33;14.85;;;2.70;;
69841;SDS011;57138;51.326;-0.068;2024-03-25T13:57:58;16.40;;;3.13;;
69841;SDS011;57138;51.326;-0.068;2024-03-25T14:00:24;15.38;;;3.78;;
69841;SDS011;57138;51.326;-0.068;2024-03-25T14:02:52;12.18;;;1.85;;
69841;SDS011;57138;51.326;-0.068;2024-03-25T14:05:18;11.73;;;2.67;;
69841;SDS011;57138;51.326;-0.068;2024-03-25T14:07:43;17.55;;;4.50;;
69841;SDS011;57138;51.326;-0.068;2024-03-25T14:10:09;15.15;;;3.17;;
69841;SDS011;57138;51.326;-0.068;2024-03-25T14:12:36;17.00;;;2.78;;
69841;SDS011;57138;51.326;-0.068;2024-03-25T14:15:02;10.65;;;3.03;;
69841;SDS011;57138;51.326;-0.068;2024-03-25T14:17:27;15.43;;;2.17;;
69841;SDS011;57138;51.326;-0.068;2024-03-25T14:19:53;11.20;;;2.65;;
69841;SDS011;57138;51.326;-0.068;2024-03-25T14:22:20;10.57;;;2.42;;